Weather at Aeropuerto Internacional de Los Cabos

Public forecast

Using degrees Celsius for public forecast. Weather courtesy of forecast.io.

Current aviation weather report (METAR) for Aeropuerto Internacional de Los Cabos

2024/06/14 12:48 (retrieved 27 minutes ago)

MMSD 141248Z 28004KT 10SM BKN120 22/18 A2986 RMK 8/090 RTS

Aviation forecast (TAF) for Aeropuerto Internacional de Los Cabos

Forecast is more than 6 hours old.

2024/06/14 06:12 (retrieved 7 hours ago)

TAF MMSD 140510Z 1406/1506 25005KT P6SM SKC FM141200 26010KT 4SM HZ SCT010 FM141500 25010KT P6SM SKC FM150300 26010KT P6SM SKC